USCGC Elm — NRPK — position and weather

sailwx.info

Track history (hours):
 
Tides and Currents Weather Stations Pressure Air Temp Water Temp Dewpoint Dewpoint Depression Visibility Wind Speed Wind Dir Waves Ship Positions

USCGC Elm

Last reported at 2017-Mar-21 23:16 UTC. Time now 2017-Mar-23 12:24 UTC.
Position N 36°57' W 075°49'.

Length 68 m; draft 4 m.

Type: Military. MMSI: 366951000.

Date/timePositionNaut miles runAvg speedWind from/ knotsBaromVisibWave heightAir tempDewpointWater temp
2017-Mar-21 23:16N 36°57' W 075°49'5 7.0
2017-Mar-21 22:33N 36°55' W 075°55'0 0.0
2017-Mar-21 21:33N 36°55' W 075°55'0 0.1
2017-Mar-21 20:33N 36°55' W 075°55'2 2.0
2017-Mar-21 19:33N 36°56' W 075°57'0 0.0
2017-Mar-21 18:31N 36°56' W 075°57'0 0.0
2017-Mar-21 17:31N 36°56' W 075°57'0 0.3
2017-Mar-21 16:32N 36°56' W 075°58'3 3.1
2017-Mar-21 15:30N 36°59' W 076°00'0 0.3
2017-Mar-21 14:29N 36°59' W 076°01'16 8.5
2017-Mar-21 12:34N 36°54' W 076°20'1 0.0
2017-Mar-20 04:32N 36°53' W 076°21'0 0.0
2017-Mar-19 22:32N 36°53' W 076°21'0 0.0
2017-Mar-19 15:30N 36°53' W 076°21'12 6.4
2017-Mar-19 13:33N 36°59' W 076°07'1111.0
2017-Mar-19 12:33N 36°57' W 075°54'  
2017-Mar-16 21:28N 34°42' W 076°41'0 0.0
2017-Mar-16 20:25N 34°42' W 076°41'0 0.0
2017-Mar-16 19:31N 34°42' W 076°41'1 1.3
2017-Mar-16 18:33N 34°41' W 076°40'1212.0
2017-Mar-16 17:33N 34°29' W 076°36'1 0.2
2017-Mar-16 14:33N 34°29' W 076°36'1212.3
2017-Mar-16 13:33N 34°40' W 076°40'2 1.6
2017-Mar-16 12:31N 34°42' W 076°41'0 0.0
2017-Mar-16 11:31N 34°42' W 076°41'0 0.0
2017-Mar-16 10:32N 34°42' W 076°41'0 0.0
2017-Mar-16 09:32N 34°42' W 076°41'0 0.0
2017-Mar-16 08:32N 34°42' W 076°41'0 0.0
2017-Mar-16 07:32N 34°42' W 076°41'0 0.0
2017-Mar-16 06:32N 34°42' W 076°41'0 0.0
2017-Mar-16 05:32N 34°42' W 076°41'0 0.0
2017-Mar-16 04:32N 34°42' W 076°41'0 0.0
2017-Mar-16 03:29N 34°42' W 076°41'0 0.0
2017-Mar-16 02:32N 34°42' W 076°41'0 0.0
2017-Mar-16 01:31N 34°42' W 076°41'0 0.0
2017-Mar-16 00:31N 34°42' W 076°41'0 0.0
2017-Mar-15 23:31N 34°42' W 076°41'0 0.0
2017-Mar-15 22:28N 34°42' W 076°41'0 0.0
2017-Mar-15 21:32N 34°42' W 076°41'0 0.0
2017-Mar-15 20:32N 34°42' W 076°41'0 0.0
2017-Mar-15 19:32N 34°42' W 076°41'0 0.0
2017-Mar-15 18:32N 34°42' W 076°41'0 0.0
2017-Mar-15 17:32N 34°42' W 076°41'0 0.0
2017-Mar-15 16:31N 34°42' W 076°41'0 0.0
2017-Mar-15 15:31N 34°42' W 076°41'0 0.0
2017-Mar-15 14:31N 34°42' W 076°41'0 0.0
2017-Mar-15 13:33N 34°42' W 076°41'0 0.0
2017-Mar-15 12:33N 34°42' W 076°41'0 0.0
2017-Mar-15 11:31N 34°42' W 076°41'0 0.0
2017-Mar-15 10:30N 34°42' W 076°41'0 0.0
2017-Mar-15 09:33N 34°42' W 076°41'0 0.0
2017-Mar-15 08:30N 34°42' W 076°41'0 0.0
2017-Mar-15 07:33N 34°42' W 076°41'0 0.0
2017-Mar-15 06:33N 34°42' W 076°41'0 0.0
2017-Mar-15 05:30N 34°42' W 076°41'0 0.0
2017-Mar-15 04:31N 34°42' W 076°41'0 0.0
2017-Mar-15 03:34N 34°42' W 076°41'0 0.0
2017-Mar-15 02:33N 34°42' W 076°41'0 0.0
2017-Mar-15 01:33N 34°42' W 076°41'0 0.0
2017-Mar-15 00:33N 34°42' W 076°41'0 0.0
2017-Mar-14 23:33N 34°42' W 076°41'0 0.0
2017-Mar-14 22:33N 34°42' W 076°41'0 0.0
2017-Mar-14 21:30N 34°42' W 076°41'0 0.0
2017-Mar-14 20:31N 34°42' W 076°41'0 0.0
2017-Mar-14 19:31N 34°42' W 076°41'0 0.0
2017-Mar-14 18:33N 34°42' W 076°41'0 0.0
2017-Mar-14 17:33N 34°42' W 076°41'0 0.0
2017-Mar-14 16:33N 34°42' W 076°41'0 0.0
2017-Mar-14 15:33N 34°42' W 076°41'0 0.0
2017-Mar-14 14:33N 34°42' W 076°41'0 0.0
2017-Mar-14 13:33N 34°42' W 076°41'0 0.0
2017-Mar-14 12:33N 34°42' W 076°41'0 0.0
2017-Mar-14 11:33N 34°42' W 076°41'0 0.0
2017-Mar-14 10:31N 34°42' W 076°41'0 0.0
2017-Mar-14 09:31N 34°42' W 076°41'0 0.0
2017-Mar-14 08:34N 34°42' W 076°41'0 0.0
2017-Mar-14 07:30N 34°42' W 076°41'0 0.0
2017-Mar-14 06:33N 34°42' W 076°41'0 0.0
2017-Mar-14 05:33N 34°42' W 076°41'0 0.0
2017-Mar-14 04:30N 34°42' W 076°41'0 0.0
2017-Mar-14 03:33N 34°42' W 076°41'0 0.0
2017-Mar-14 02:33N 34°42' W 076°41'0 0.0
2017-Mar-14 01:31N 34°42' W 076°41'0 0.0
2017-Mar-14 00:31N 34°42' W 076°41'0 0.0
2017-Mar-13 23:31N 34°42' W 076°41'0 0.0
2017-Mar-13 22:34N 34°42' W 076°41'0 0.0
2017-Mar-13 21:33N 34°42' W 076°41'0 0.0
2017-Mar-13 20:33N 34°42' W 076°41'0 0.0
2017-Mar-13 19:33N 34°42' W 076°41'0 0.0
2017-Mar-13 18:30N 34°42' W 076°41'0 0.0
2017-Mar-13 17:30N 34°42' W 076°41'0 0.0
2017-Mar-13 16:33N 34°42' W 076°41'0 0.0
2017-Mar-13 15:33N 34°42' W 076°41'0 0.0
2017-Mar-13 14:30N 34°42' W 076°41'0 0.0
2017-Mar-13 13:30N 34°42' W 076°41'0 0.0
2017-Mar-13 12:31N 34°42' W 076°41'0 0.0
2017-Mar-13 11:31N 34°42' W 076°41'0 0.0
2017-Mar-13 10:31N 34°42' W 076°41'0 0.0
2017-Mar-13 09:33N 34°42' W 076°41'0 0.0
2017-Mar-13 08:33N 34°42' W 076°41'0 0.0
2017-Mar-13 07:33N 34°42' W 076°41'0 0.0
2017-Mar-13 06:30N 34°42' W 076°41'0 0.0
2017-Mar-13 05:30N 34°42' W 076°41'0 0.0
2017-Mar-13 04:31N 34°42' W 076°41'0 0.0
2017-Mar-13 03:33N 34°42' W 076°41'0 0.0
2017-Mar-13 02:33N 34°42' W 076°41'0 0.0
2017-Mar-13 01:33N 34°42' W 076°41'0 0.0
2017-Mar-13 00:33N 34°42' W 076°41'0 0.0
2017-Mar-12 23:30N 34°42' W 076°41'0 0.0
2017-Mar-12 22:33N 34°42' W 076°41'0 0.0
2017-Mar-12 21:30N 34°42' W 076°41'0 0.0
2017-Mar-12 20:30N 34°42' W 076°41'0 0.0
2017-Mar-12 19:31N 34°42' W 076°41'0 0.0
2017-Mar-12 18:31N 34°42' W 076°41'0 0.0
2017-Mar-12 17:31N 34°42' W 076°41'0 0.0
2017-Mar-12 16:33N 34°42' W 076°41'0 0.0
2017-Mar-12 15:33N 34°42' W 076°41'0 0.0
2017-Mar-12 14:33N 34°42' W 076°41'0 0.0
2017-Mar-12 13:33N 34°42' W 076°41'0 0.0
2017-Mar-12 12:33N 34°42' W 076°41'0 0.0
2017-Mar-12 11:28N 34°42' W 076°41'0 0.0
2017-Mar-12 10:30N 34°42' W 076°41'0 0.0
2017-Mar-12 09:30N 34°42' W 076°41'0 0.0
2017-Mar-12 08:31N 34°42' W 076°41'0 0.0
2017-Mar-12 07:33N 34°42' W 076°41'0 0.0
2017-Mar-12 06:33N 34°42' W 076°41'0 0.0
2017-Mar-12 05:33N 34°42' W 076°41'0 0.0
2017-Mar-12 04:33N 34°42' W 076°41'0 0.0
2017-Mar-12 03:33N 34°42' W 076°41'0 0.0
2017-Mar-12 02:33N 34°42' W 076°41'0 0.0
2017-Mar-12 01:31N 34°42' W 076°41'0 0.0
2017-Mar-12 00:31N 34°42' W 076°41'0 0.0
2017-Mar-11 23:31N 34°42' W 076°41'  
Track history (hours):
 
Tides and Currents Weather Stations Pressure Air Temp Water Temp Dewpoint Dewpoint Depression Visibility Wind Speed Wind Dir Waves Ship Positions

USCGC Elm

Last reported at 2017-Mar-21 23:16 UTC. Time now 2017-Mar-23 12:24 UTC.
Position N 36°57' W 075°49'.

Length 68 m; draft 4 m.

Type: Military. MMSI: 366951000.

Date/timePositionNaut miles runAvg speedWind from/ knotsBaromVisibWave heightAir tempDewpointWater temp
2017-Mar-21 23:16N 36°57' W 075°49'5 7.0
2017-Mar-21 22:33N 36°55' W 075°55'0 0.0
2017-Mar-21 21:33N 36°55' W 075°55'0 0.1
2017-Mar-21 20:33N 36°55' W 075°55'2 2.0
2017-Mar-21 19:33N 36°56' W 075°57'0 0.0
2017-Mar-21 18:31N 36°56' W 075°57'0 0.0
2017-Mar-21 17:31N 36°56' W 075°57'0 0.3
2017-Mar-21 16:32N 36°56' W 075°58'3 3.1
2017-Mar-21 15:30N 36°59' W 076°00'0 0.3
2017-Mar-21 14:29N 36°59' W 076°01'16 8.5
2017-Mar-21 12:34N 36°54' W 076°20'1 0.0
2017-Mar-20 04:32N 36°53' W 076°21'0 0.0
2017-Mar-19 22:32N 36°53' W 076°21'0 0.0
2017-Mar-19 15:30N 36°53' W 076°21'12 6.4
2017-Mar-19 13:33N 36°59' W 076°07'1111.0
2017-Mar-19 12:33N 36°57' W 075°54'  
2017-Mar-16 21:28N 34°42' W 076°41'0 0.0
2017-Mar-16 20:25N 34°42' W 076°41'0 0.0
2017-Mar-16 19:31N 34°42' W 076°41'1 1.3
2017-Mar-16 18:33N 34°41' W 076°40'1212.0
2017-Mar-16 17:33N 34°29' W 076°36'1 0.2
2017-Mar-16 14:33N 34°29' W 076°36'1212.3
2017-Mar-16 13:33N 34°40' W 076°40'2 1.6
2017-Mar-16 12:31N 34°42' W 076°41'0 0.0
2017-Mar-16 11:31N 34°42' W 076°41'0 0.0
2017-Mar-16 10:32N 34°42' W 076°41'0 0.0
2017-Mar-16 09:32N 34°42' W 076°41'0 0.0
2017-Mar-16 08:32N 34°42' W 076°41'0 0.0
2017-Mar-16 07:32N 34°42' W 076°41'0 0.0
2017-Mar-16 06:32N 34°42' W 076°41'0 0.0
2017-Mar-16 05:32N 34°42' W 076°41'0 0.0
2017-Mar-16 04:32N 34°42' W 076°41'0 0.0
2017-Mar-16 03:29N 34°42' W 076°41'0 0.0
2017-Mar-16 02:32N 34°42' W 076°41'0 0.0
2017-Mar-16 01:31N 34°42' W 076°41'0 0.0
2017-Mar-16 00:31N 34°42' W 076°41'0 0.0
2017-Mar-15 23:31N 34°42' W 076°41'0 0.0
2017-Mar-15 22:28N 34°42' W 076°41'0 0.0
2017-Mar-15 21:32N 34°42' W 076°41'0 0.0
2017-Mar-15 20:32N 34°42' W 076°41'0 0.0
2017-Mar-15 19:32N 34°42' W 076°41'0 0.0
2017-Mar-15 18:32N 34°42' W 076°41'0 0.0
2017-Mar-15 17:32N 34°42' W 076°41'0 0.0
2017-Mar-15 16:31N 34°42' W 076°41'0 0.0
2017-Mar-15 15:31N 34°42' W 076°41'0 0.0
2017-Mar-15 14:31N 34°42' W 076°41'0 0.0
2017-Mar-15 13:33N 34°42' W 076°41'0 0.0
2017-Mar-15 12:33N 34°42' W 076°41'0 0.0
2017-Mar-15 11:31N 34°42' W 076°41'0 0.0
2017-Mar-15 10:30N 34°42' W 076°41'0 0.0
2017-Mar-15 09:33N 34°42' W 076°41'0 0.0
2017-Mar-15 08:30N 34°42' W 076°41'0 0.0
2017-Mar-15 07:33N 34°42' W 076°41'0 0.0
2017-Mar-15 06:33N 34°42' W 076°41'0 0.0
2017-Mar-15 05:30N 34°42' W 076°41'0 0.0
2017-Mar-15 04:31N 34°42' W 076°41'0 0.0
2017-Mar-15 03:34N 34°42' W 076°41'0 0.0
2017-Mar-15 02:33N 34°42' W 076°41'0 0.0
2017-Mar-15 01:33N 34°42' W 076°41'0 0.0
2017-Mar-15 00:33N 34°42' W 076°41'0 0.0
2017-Mar-14 23:33N 34°42' W 076°41'0 0.0
2017-Mar-14 22:33N 34°42' W 076°41'0 0.0
2017-Mar-14 21:30N 34°42' W 076°41'0 0.0
2017-Mar-14 20:31N 34°42' W 076°41'0 0.0
2017-Mar-14 19:31N 34°42' W 076°41'0 0.0
2017-Mar-14 18:33N 34°42' W 076°41'0 0.0
2017-Mar-14 17:33N 34°42' W 076°41'0 0.0
2017-Mar-14 16:33N 34°42' W 076°41'0 0.0
2017-Mar-14 15:33N 34°42' W 076°41'0 0.0
2017-Mar-14 14:33N 34°42' W 076°41'0 0.0
2017-Mar-14 13:33N 34°42' W 076°41'0 0.0
2017-Mar-14 12:33N 34°42' W 076°41'0 0.0
2017-Mar-14 11:33N 34°42' W 076°41'0 0.0
2017-Mar-14 10:31N 34°42' W 076°41'0 0.0
2017-Mar-14 09:31N 34°42' W 076°41'0 0.0
2017-Mar-14 08:34N 34°42' W 076°41'0 0.0
2017-Mar-14 07:30N 34°42' W 076°41'0 0.0
2017-Mar-14 06:33N 34°42' W 076°41'0 0.0
2017-Mar-14 05:33N 34°42' W 076°41'0 0.0
2017-Mar-14 04:30N 34°42' W 076°41'0 0.0
2017-Mar-14 03:33N 34°42' W 076°41'0 0.0
2017-Mar-14 02:33N 34°42' W 076°41'0 0.0
2017-Mar-14 01:31N 34°42' W 076°41'0 0.0
2017-Mar-14 00:31N 34°42' W 076°41'0 0.0
2017-Mar-13 23:31N 34°42' W 076°41'0 0.0
2017-Mar-13 22:34N 34°42' W 076°41'0 0.0
2017-Mar-13 21:33N 34°42' W 076°41'0 0.0
2017-Mar-13 20:33N 34°42' W 076°41'0 0.0
2017-Mar-13 19:33N 34°42' W 076°41'0 0.0
2017-Mar-13 18:30N 34°42' W 076°41'0 0.0
2017-Mar-13 17:30N 34°42' W 076°41'0 0.0
2017-Mar-13 16:33N 34°42' W 076°41'0 0.0
2017-Mar-13 15:33N 34°42' W 076°41'0 0.0
2017-Mar-13 14:30N 34°42' W 076°41'0 0.0
2017-Mar-13 13:30N 34°42' W 076°41'0 0.0
2017-Mar-13 12:31N 34°42' W 076°41'0 0.0
2017-Mar-13 11:31N 34°42' W 076°41'0 0.0
2017-Mar-13 10:31N 34°42' W 076°41'0 0.0
2017-Mar-13 09:33N 34°42' W 076°41'0 0.0
2017-Mar-13 08:33N 34°42' W 076°41'0 0.0
2017-Mar-13 07:33N 34°42' W 076°41'0 0.0
2017-Mar-13 06:30N 34°42' W 076°41'0 0.0
2017-Mar-13 05:30N 34°42' W 076°41'0 0.0
2017-Mar-13 04:31N 34°42' W 076°41'0 0.0
2017-Mar-13 03:33N 34°42' W 076°41'0 0.0
2017-Mar-13 02:33N 34°42' W 076°41'0 0.0
2017-Mar-13 01:33N 34°42' W 076°41'0 0.0
2017-Mar-13 00:33N 34°42' W 076°41'0 0.0
2017-Mar-12 23:30N 34°42' W 076°41'0 0.0
2017-Mar-12 22:33N 34°42' W 076°41'0 0.0
2017-Mar-12 21:30N 34°42' W 076°41'0 0.0
2017-Mar-12 20:30N 34°42' W 076°41'0 0.0
2017-Mar-12 19:31N 34°42' W 076°41'0 0.0
2017-Mar-12 18:31N 34°42' W 076°41'0 0.0
2017-Mar-12 17:31N 34°42' W 076°41'0 0.0
2017-Mar-12 16:33N 34°42' W 076°41'0 0.0
2017-Mar-12 15:33N 34°42' W 076°41'0 0.0
2017-Mar-12 14:33N 34°42' W 076°41'0 0.0
2017-Mar-12 13:33N 34°42' W 076°41'0 0.0
2017-Mar-12 12:33N 34°42' W 076°41'0 0.0
2017-Mar-12 11:28N 34°42' W 076°41'0 0.0
2017-Mar-12 10:30N 34°42' W 076°41'0 0.0
2017-Mar-12 09:30N 34°42' W 076°41'0 0.0
2017-Mar-12 08:31N 34°42' W 076°41'0 0.0
2017-Mar-12 07:33N 34°42' W 076°41'0 0.0
2017-Mar-12 06:33N 34°42' W 076°41'0 0.0
2017-Mar-12 05:33N 34°42' W 076°41'0 0.0
2017-Mar-12 04:33N 34°42' W 076°41'0 0.0
2017-Mar-12 03:33N 34°42' W 076°41'0 0.0
2017-Mar-12 02:33N 34°42' W 076°41'0 0.0
2017-Mar-12 01:31N 34°42' W 076°41'0 0.0
2017-Mar-12 00:31N 34°42' W 076°41'0 0.0
2017-Mar-11 23:31N 34°42' W 076°41'  

Dump ship's entire track history